Time;durP1;ratioP1;P1;durP2;ratioP2;P2;SDS_P1;SDS_P2;PMS_P1;PMS_P2;Temp;Humidity;BMP_temperature;BMP_pressure;BME280_temperature;BME280_humidity;BME280_pressure;Samples;Min_cycle;Max_cycle;Signal;HPM_P1;HPM_P2
2022/06/17 00:02:04;;;;;;;5.70;3.10;;;;;;;14.47;69.02;100091.06;5034675;28;20025;-56
2022/06/17 00:04:29;;;;;;;8.90;3.50;;;;;;;14.37;69.58;100097.09;5046510;28;20498;-56
2022/06/17 00:06:56;;;;;;;5.05;2.95;;;;;;;14.38;69.99;100100.66;5046862;28;20036;-56
2022/06/17 00:09:23;;;;;;;7.05;3.40;;;;;;;14.34;69.99;100099.50;5054966;28;20509;-57
2022/06/17 00:11:48;;;;;;;5.18;2.92;;;;;;;14.21;71.77;100093.38;5048508;28;20025;-56
2022/06/17 00:14:20;;;;;;;4.47;3.00;;;;;;;14.12;71.48;100094.00;5066710;28;20460;-55
2022/06/17 00:16:46;;;;;;;4.40;3.20;;;;;;;14.16;72.79;100089.78;5048406;28;20181;-57
2022/06/17 00:19:11;;;;;;;10.95;3.30;;;;;;;14.09;70.76;100094.50;5063294;28;20024;-55
2022/06/17 00:21:39;;;;;;;7.18;3.50;;;;;;;14.19;70.38;100090.09;5069904;28;20066;-57
2022/06/17 00:24:33;;;;;;;5.28;3.20;;;;;;;14.01;72.41;100091.16;5054680;28;20482;-57
2022/06/17 00:26:59;;;;;;;7.25;3.40;;;;;;;13.73;72.87;100088.50;5059215;28;20299;-56
2022/06/17 00:29:26;;;;;;;6.53;2.97;;;;;;;13.80;73.90;100083.75;5072721;28;20514;-56
2022/06/17 00:31:51;;;;;;;6.00;3.33;;;;;;;13.76;72.14;100090.72;5052435;28;20364;-57
2022/06/17 00:34:17;;;;;;;6.63;3.40;;;;;;;13.77;72.11;100079.69;5066712;28;20028;-55
2022/06/17 00:36:42;;;;;;;7.07;3.33;;;;;;;13.77;72.25;100086.94;5056411;28;20029;-56
2022/06/17 00:39:23;;;;;;;6.20;3.42;;;;;;;13.73;72.82;100093.91;5042362;28;20116;-56
2022/06/17 00:41:50;;;;;;;5.25;3.20;;;;;;;13.58;73.04;100089.84;5071723;28;20364;-56
2022/06/17 00:44:37;;;;;;;6.40;3.40;;;;;;;13.59;73.08;100094.19;5045749;28;20548;-56
2022/06/17 00:47:30;;;;;;;5.35;3.20;;;;;;;13.54;73.01;100102.16;5073243;28;20086;-55
2022/06/17 00:50:03;;;;;;;7.85;3.53;;;;;;;13.35;73.13;100116.88;5055120;28;20036;-56
2022/06/17 00:52:34;;;;;;;6.68;3.72;;;;;;;13.11;74.38;100111.53;5072587;28;20029;-54
2022/06/17 00:55:04;;;;;;;7.55;3.67;;;;;;;13.17;74.58;100112.44;5026079;28;20020;-56
2022/06/17 00:57:36;;;;;;;7.30;3.47;;;;;;;13.40;73.99;100114.25;5055987;28;20028;-56
2022/06/17 01:00:11;;;;;;;5.95;3.38;;;;;;;13.45;73.39;100122.44;5073587;28;20498;-54
2022/06/17 01:02:51;;;;;;;7.30;3.40;;;;;;;13.47;72.99;100112.25;5073677;28;20028;-55
2022/06/17 01:05:18;;;;;;;6.85;3.70;;;;;;;13.61;72.90;100112.81;5055488;28;20082;-56
2022/06/17 01:07:53;;;;;;;7.78;3.75;;;;;;;13.62;73.20;100106.34;5072571;28;20040;-56
2022/06/17 01:10:19;;;;;;;5.70;3.15;;;;;;;13.41;73.65;100099.75;5061410;28;20530;-55
2022/06/17 01:12:49;;;;;;;6.00;3.40;;;;;;;13.45;73.78;100103.59;5053845;28;20055;-56
2022/06/17 01:15:18;;;;;;;5.38;3.40;;;;;;;13.54;74.21;100107.56;5068396;28;20033;-56
2022/06/17 01:17:44;;;;;;;7.55;3.80;;;;;;;13.55;73.44;100102.97;5072660;28;20074;-55
2022/06/17 01:20:10;;;;;;;6.43;3.95;;;;;;;13.40;74.43;100105.38;5072527;28;20024;-56
2022/06/17 01:22:37;;;;;;;5.70;3.40;;;;;;;13.23;75.63;100102.59;5072727;28;20040;-55
2022/06/17 01:25:20;;;;;;;4.97;3.28;;;;;;;13.37;74.40;100095.91;5072421;28;20042;-55
2022/06/17 01:27:51;;;;;;;5.45;3.30;;;;;;;13.38;74.36;100100.25;5043353;28;20012;-54
2022/06/17 01:30:20;;;;;;;;;;;;;;;13.08;75.57;100103.94;5074117;28;20451;-55
2022/06/17 01:32:55;;;;;;;9.10;3.50;;;;;;;13.19;75.71;100104.13;5071271;28;19916;-56
2022/06/17 01:35:20;;;;;;;6.88;2.88;;;;;;;13.27;75.73;100112.66;5052048;28;20487;-57
2022/06/17 01:37:46;;;;;;;5.18;3.63;;;;;;;13.22;75.25;100111.72;5040376;28;20107;-55
2022/06/17 01:40:12;;;;;;;5.22;3.63;;;;;;;13.21;76.93;100116.28;5069304;28;20037;-55
2022/06/17 01:42:38;;;;;;;6.43;3.80;;;;;;;13.06;76.93;100114.09;5047799;28;20014;-57
2022/06/17 01:45:04;;;;;;;4.95;3.40;;;;;;;12.94;76.28;100119.50;5068220;28;20031;-55
2022/06/17 01:47:29;;;;;;;5.90;3.40;;;;;;;12.66;77.06;100114.84;5070340;28;20031;-55
2022/06/17 01:49:57;;;;;;;5.57;3.35;;;;;;;12.66;78.28;100106.78;5059438;28;20021;-56
2022/06/17 01:52:31;;;;;;;5.63;3.58;;;;;;;12.64;78.67;100105.38;5025724;28;20075;-55
2022/06/17 01:54:59;;;;;;;5.72;3.78;;;;;;;12.79;78.02;100110.28;5024042;28;20043;-56
2022/06/17 01:57:30;;;;;;;6.88;3.70;;;;;;;12.84;77.22;100118.47;5057603;28;20356;-55
2022/06/17 02:00:16;;;;;;;6.25;3.65;;;;;;;12.78;77.90;100119.41;5068780;28;20025;-56
2022/06/17 02:02:42;;;;;;;14.48;4.07;;;;;;;12.74;77.79;100125.25;5034341;28;20038;-57
2022/06/17 02:05:08;;;;;;;5.78;3.70;;;;;;;12.77;77.61;100120.47;5029237;28;20043;-56
2022/06/17 02:07:35;;;;;;;7.75;3.70;;;;;;;12.67;77.69;100119.16;5035426;28;20115;-56
2022/06/17 02:10:01;;;;;;;8.00;3.72;;;;;;;12.73;77.16;100122.81;5049525;28;20127;-56
2022/06/17 02:12:28;;;;;;;5.40;3.63;;;;;;;12.60;77.47;100128.41;5050525;28;20121;-56
2022/06/17 02:14:53;;;;;;;7.82;4.15;;;;;;;12.60;77.70;100128.41;5067270;28;20074;-55
2022/06/17 02:17:20;;;;;;;7.18;3.65;;;;;;;12.68;77.41;100123.50;5049770;28;20469;-56
2022/06/17 02:19:45;;;;;;;6.38;3.80;;;;;;;12.71;76.70;100114.97;5051074;28;20032;-56
2022/06/17 02:22:15;;;;;;;6.82;3.60;;;;;;;13.04;75.36;100124.28;5038591;28;20033;-53
2022/06/17 02:24:41;;;;;;;7.68;3.65;;;;;;;12.93;76.33;100119.75;5049128;28;20016;-56
2022/06/17 02:27:09;;;;;;;6.63;3.70;;;;;;;12.89;76.63;100126.66;5067620;28;20040;-56
2022/06/17 02:29:37;;;;;;;5.75;3.40;;;;;;;12.89;78.10;100127.47;5023277;28;20028;-55
2022/06/17 02:32:05;;;;;;;6.68;3.85;;;;;;;12.76;77.35;100138.47;5023755;28;20049;-55
2022/06/17 02:34:33;;;;;;;6.45;3.75;;;;;;;12.50;78.02;100127.13;5022283;28;20162;-57
2022/06/17 02:37:02;;;;;;;6.65;3.22;;;;;;;12.43;79.14;100122.91;5067583;28;20036;-55
2022/06/17 02:39:27;;;;;;;6.68;3.80;;;;;;;12.32;79.13;100126.41;5020474;28;20032;-55
2022/06/17 02:41:53;;;;;;;7.30;3.58;;;;;;;12.28;79.67;100126.88;5066171;28;20029;-56
2022/06/17 02:44:22;;;;;;;7.07;3.50;;;;;;;12.20;80.20;100140.63;5068551;28;20025;-56
2022/06/17 02:46:48;;;;;;;6.25;3.65;;;;;;;12.27;79.91;100129.78;5057543;28;20032;-56
2022/06/17 02:49:18;;;;;;;6.55;3.88;;;;;;;12.17;79.99;100127.66;5050807;28;20025;-55
2022/06/17 02:51:44;;;;;;;6.38;3.70;;;;;;;12.13;80.30;100123.81;5047550;28;20067;-56
2022/06/17 02:54:15;;;;;;;6.82;3.83;;;;;;;12.12;79.88;100122.16;5051364;28;20124;-56
2022/06/17 02:56:42;;;;;;;7.05;3.70;;;;;;;12.01;80.85;100120.28;5050870;28;20029;-55
2022/06/17 02:59:27;;;;;;;6.88;4.07;;;;;;;12.29;82.35;100115.06;5049608;28;20453;-56
2022/06/17 03:01:55;;;;;;;5.65;3.50;;;;;;;12.27;79.07;100117.16;5057000;28;20120;-61
2022/06/17 03:04:23;;;;;;;7.00;4.22;;;;;;;12.15;79.82;100127.06;5064841;28;20620;-56
2022/06/17 03:06:49;;;;;;;5.18;3.67;;;;;;;12.13;80.37;100134.56;5059220;28;20024;-55
2022/06/17 03:09:23;;;;;;;8.13;3.78;;;;;;;11.99;80.08;100133.94;5067887;28;20040;-56
2022/06/17 03:11:56;;;;;;;8.13;4.22;;;;;;;11.96;80.21;100137.09;5068061;28;20024;-55
2022/06/17 03:14:23;;;;;;;6.50;4.10;;;;;;;11.54;80.34;100137.00;5061193;28;20407;-56
2022/06/17 03:16:53;;;;;;;7.38;4.07;;;;;;;11.21;82.50;100148.16;5049093;28;20037;-55
2022/06/17 03:19:18;;;;;;;6.75;3.63;;;;;;;11.59;84.78;100142.53;5068183;28;20035;-55
2022/06/17 03:21:44;;;;;;;7.10;3.85;;;;;;;11.81;82.87;100142.03;5067821;28;20032;-56
2022/06/17 03:24:42;;;;;;;5.65;3.85;;;;;;;12.21;81.70;100139.59;5023328;28;20033;-55
2022/06/17 03:27:13;;;;;;;5.85;4.10;;;;;;;12.23;80.88;100140.19;5041233;28;20028;-55
2022/06/17 03:29:38;;;;;;;6.63;3.95;;;;;;;12.84;79.04;100145.38;5038421;28;20025;-56
2022/06/17 03:32:06;;;;;;;6.20;3.72;;;;;;;13.57;73.77;100142.06;5028349;28;20024;-55
2022/06/17 03:34:36;;;;;;;6.97;3.92;;;;;;;13.44;73.19;100139.66;5068512;28;20020;-56
2022/06/17 03:37:07;;;;;;;5.57;3.55;;;;;;;13.31;74.86;100151.53;5047964;28;20296;-55
2022/06/17 03:39:38;;;;;;;7.38;3.85;;;;;;;13.14;74.75;100156.78;5020600;28;20110;-56
2022/06/17 03:42:16;;;;;;;5.57;3.58;;;;;;;13.86;71.96;100162.84;5068609;28;20029;-56
2022/06/17 03:45:02;;;;;;;7.20;3.80;;;;;;;14.22;71.85;100156.19;5063960;28;20032;-55
2022/06/17 03:47:57;;;;;;;6.95;3.78;;;;;;;14.57;68.75;100163.25;5050012;28;20097;-56
2022/06/17 03:50:37;;;;;;;5.00;3.58;;;;;;;15.41;67.95;100162.28;5066818;28;20033;-56
2022/06/17 03:53:12;;;;;;;7.18;3.67;;;;;;;16.11;62.82;100164.13;5030315;28;20024;-55
2022/06/17 03:55:38;;;;;;;7.60;3.67;;;;;;;16.40;62.24;100163.88;5049087;28;20037;-57
2022/06/17 03:58:03;;;;;;;6.45;3.50;;;;;;;17.28;60.13;100168.78;5051120;28;20035;-56
2022/06/17 04:00:37;;;;;;;5.90;3.80;;;;;;;17.36;58.29;100168.28;5063079;28;20028;-56
2022/06/17 04:03:02;;;;;;;5.43;3.83;;;;;;;17.19;59.96;100170.34;5020105;28;20028;-56
2022/06/17 04:05:28;;;;;;;6.07;3.47;;;;;;;17.12;59.52;100180.59;5017044;28;20073;-57
2022/06/17 04:07:53;;;;;;;5.00;3.30;;;;;;;18.19;56.36;100181.00;5037122;28;20025;-56
2022/06/17 04:10:21;;;;;;;7.93;3.30;;;;;;;18.58;54.89;100183.19;5067635;28;20495;-56
2022/06/17 04:12:48;;;;;;;7.78;3.70;;;;;;;18.43;55.33;100188.63;5068050;28;20024;-56
2022/06/17 04:15:16;;;;;;;6.55;3.50;;;;;;;18.02;56.75;100192.13;5021027;28;20051;-56
2022/06/17 04:17:43;;;;;;;5.85;3.22;;;;;;;18.74;54.23;100190.22;5066700;28;20483;-56
2022/06/17 04:20:24;;;;;;;5.72;3.20;;;;;;;17.94;56.29;100191.81;5049182;28;20055;-56
2022/06/17 04:22:50;;;;;;;6.00;3.50;;;;;;;17.19;58.99;100187.41;5061113;28;20035;-56
2022/06/17 04:25:29;;;;;;;4.65;3.30;;;;;;;16.91;60.53;100194.03;5049523;28;20028;-55
2022/06/17 04:27:59;;;;;;;8.70;3.35;;;;;;;17.26;59.37;100192.63;5067505;28;20044;-56
2022/06/17 04:30:28;;;;;;;8.70;3.85;;;;;;;17.53;57.63;100189.75;5044161;28;20032;-57
2022/06/17 04:32:56;;;;;;;6.50;3.42;;;;;;;18.46;55.87;100188.09;5028304;28;20082;-57
2022/06/17 04:35:21;;;;;;;8.02;3.42;;;;;;;20.35;51.11;100190.16;5016109;28;20059;-56
2022/06/17 04:37:47;;;;;;;5.50;3.28;;;;;;;20.11;50.03;100184.59;5068113;28;20020;-57
2022/06/17 04:40:24;;;;;;;6.85;3.53;;;;;;;21.64;47.74;100189.72;5066374;28;20033;-57
2022/06/17 04:42:50;;;;;;;5.38;2.97;;;;;;;21.43;47.05;100191.91;5066881;28;20378;-57
2022/06/17 04:45:21;;;;;;;5.60;3.30;;;;;;;21.96;45.62;100186.28;5043478;28;20029;-57
2022/06/17 04:47:46;;;;;;;6.38;3.40;;;;;;;22.42;44.55;100196.53;5044096;28;20024;-56
2022/06/17 04:50:14;;;;;;;5.80;3.20;;;;;;;22.42;44.68;100202.00;5067850;28;20343;-55
2022/06/17 04:52:41;;;;;;;5.95;3.30;;;;;;;23.18;43.50;100208.06;5049415;28;20029;-57
2022/06/17 04:55:13;;;;;;;7.90;3.42;;;;;;;23.62;42.56;100209.38;5048837;28;20032;-56
2022/06/17 04:57:39;;;;;;;7.53;3.42;;;;;;;23.74;42.38;100200.69;5037064;28;20490;-55
2022/06/17 05:00:05;;;;;;;6.75;3.20;;;;;;;24.68;41.14;100204.53;5067664;28;20032;-57
2022/06/17 05:02:32;;;;;;;5.35;3.20;;;;;;;25.02;40.31;100213.28;5067071;28;20024;-55
2022/06/17 05:05:03;;;;;;;5.60;3.25;;;;;;;24.98;40.52;100208.38;5067671;28;20505;-55
2022/06/17 05:07:31;;;;;;;11.15;3.50;;;;;;;25.20;40.63;100214.19;5040772;28;20037;-55
2022/06/17 05:10:03;;;;;;;5.60;3.00;;;;;;;24.29;43.00;100219.69;5053729;28;20098;-56
2022/06/17 05:13:10;;;;;;;6.40;3.10;;;;;;;24.26;43.05;100224.97;5069869;28;20037;-56
2022/06/17 05:15:35;;;;;;;6.75;3.00;;;;;;;24.60;43.60;100229.94;5069640;28;20064;-55
2022/06/17 05:18:02;;;;;;;8.60;3.30;;;;;;;25.28;41.19;100232.59;5056060;28;20027;-55
2022/06/17 05:20:28;;;;;;;9.15;3.00;;;;;;;24.35;42.83;100236.03;5070763;28;20399;-55
2022/06/17 05:22:57;;;;;;;8.38;3.42;;;;;;;25.94;39.91;100241.72;5068872;28;20032;-55
2022/06/17 05:25:25;;;;;;;7.40;3.40;;;;;;;24.58;41.48;100234.94;5070733;28;20028;-56
2022/06/17 05:27:50;;;;;;;5.72;3.42;;;;;;;25.29;40.44;100240.53;5071191;28;20028;-56
2022/06/17 05:30:16;;;;;;;8.55;3.90;;;;;;;26.03;38.92;100237.06;5070931;28;20104;-56
2022/06/17 05:32:43;;;;;;;6.15;3.65;;;;;;;26.26;38.17;100239.66;5070730;28;20021;-55
2022/06/17 05:35:09;;;;;;;5.97;3.60;;;;;;;25.96;38.64;100239.47;5071193;28;20025;-57
2022/06/17 05:37:35;;;;;;;10.52;3.78;;;;;;;25.41;39.22;100228.97;5054124;28;20095;-56
2022/06/17 05:40:01;;;;;;;6.75;3.70;;;;;;;24.87;39.71;100233.66;5051419;28;20487;-55
2022/06/17 05:42:27;;;;;;;8.95;3.97;;;;;;;26.31;38.12;100235.91;5070853;28;20028;-56
2022/06/17 05:44:52;;;;;;;5.85;3.78;;;;;;;25.91;38.78;100239.63;5070360;28;20086;-56
2022/06/17 05:47:18;;;;;;;8.13;3.80;;;;;;;26.61;37.50;100239.63;5070684;28;20032;-56
2022/06/17 05:49:43;;;;;;;9.02;3.80;;;;;;;26.02;38.23;100240.09;5070381;28;20020;-56
2022/06/17 05:52:10;;;;;;;9.60;3.78;;;;;;;26.41;37.33;100236.41;5070427;28;20102;-56
2022/06/17 05:54:35;;;;;;;5.25;3.55;;;;;;;25.64;38.06;100234.38;5042513;28;20029;-56
2022/06/17 05:57:01;;;;;;;6.30;3.38;;;;;;;25.51;37.77;100236.91;5070730;28;20024;-56
2022/06/17 05:59:26;;;;;;;6.82;3.80;;;;;;;25.86;38.94;100239.78;5070284;28;20032;-56
2022/06/17 06:01:52;;;;;;;8.10;3.78;;;;;;;26.43;37.84;100233.31;5069253;28;20482;-56
2022/06/17 06:04:17;;;;;;;10.45;4.03;;;;;;;27.25;37.01;100234.16;5069078;28;20024;-56
2022/06/17 06:06:42;;;;;;;5.53;3.50;;;;;;;28.18;35.93;100240.63;5055683;28;20683;-56
2022/06/17 06:09:09;;;;;;;7.65;3.60;;;;;;;25.78;39.82;100235.81;5069217;28;20028;-56
2022/06/17 06:11:34;;;;;;;6.68;3.47;;;;;;;27.48;36.76;100234.72;5069514;28;20039;-56
2022/06/17 06:14:00;;;;;;;8.48;3.67;;;;;;;28.34;35.87;100231.72;5070055;28;20024;-56
2022/06/17 06:16:25;;;;;;;6.10;3.53;;;;;;;28.03;35.87;100227.44;5057628;28;20062;-56
2022/06/17 06:18:51;;;;;;;7.00;3.63;;;;;;;28.74;34.94;100237.53;5069267;28;20032;-56
2022/06/17 06:21:16;;;;;;;7.22;3.72;;;;;;;28.51;34.98;100230.81;5069478;28;20036;-56
2022/06/17 06:23:42;;;;;;;6.35;3.63;;;;;;;28.87;34.57;100238.38;5047852;28;20127;-56
2022/06/17 06:26:10;;;;;;;7.05;3.53;;;;;;;28.63;34.66;100238.28;5069390;28;20074;-56
2022/06/17 06:28:35;;;;;;;10.48;3.75;;;;;;;26.62;37.90;100230.25;5040071;28;20029;-56
2022/06/17 06:31:26;;;;;;;6.07;3.30;;;;;;;27.70;36.40;100221.78;5070221;28;20023;-56
2022/06/17 06:33:51;;;;;;;9.15;4.03;;;;;;;28.00;35.38;100217.06;5053303;28;20070;-55
2022/06/17 06:36:17;;;;;;;7.75;3.85;;;;;;;27.11;37.06;100212.34;5069709;28;20028;-56
2022/06/17 06:38:42;;;;;;;8.30;3.60;;;;;;;29.35;34.12;100217.53;5068655;28;20479;-56
2022/06/17 06:41:08;;;;;;;12.60;4.00;;;;;;;30.02;33.41;100220.00;5069392;28;20035;-56
2022/06/17 06:43:34;;;;;;;7.63;3.50;;;;;;;28.07;36.89;100220.09;5069101;28;20107;-55
2022/06/17 06:46:03;;;;;;;7.72;3.72;;;;;;;28.48;37.29;100215.75;5068272;28;20104;-56
2022/06/17 06:48:28;;;;;;;11.15;3.80;;;;;;;27.53;38.41;100214.44;5051745;28;20035;-56
2022/06/17 06:50:54;;;;;;;26.83;5.07;;;;;;;24.54;43.84;100220.25;5051616;28;20021;-56
2022/06/17 06:53:19;;;;;;;40.92;6.20;;;;;;;23.54;45.68;100209.28;5067994;28;20082;-56
2022/06/17 06:55:45;;;;;;;23.52;5.88;;;;;;;23.48;46.06;100195.69;5068841;28;20467;-54
2022/06/17 06:58:19;;;;;;;30.83;5.30;;;;;;;25.29;43.64;100202.13;5067817;28;20034;-56
2022/06/17 07:00:46;;;;;;;26.50;5.88;;;;;;;24.21;45.44;100201.28;5048646;28;20433;-55
2022/06/17 07:03:11;;;;;;;27.00;5.43;;;;;;;25.12;43.08;100208.31;5066829;28;20029;-57
2022/06/17 07:05:38;;;;;;;21.15;5.18;;;;;;;25.24;43.62;100198.72;5069220;28;20394;-55
2022/06/17 07:08:05;;;;;;;23.40;4.90;;;;;;;25.67;42.41;100198.84;5018626;28;20075;-57
2022/06/17 07:10:33;;;;;;;20.70;4.53;;;;;;;25.45;43.62;100191.50;5066552;28;20039;-56
2022/06/17 07:12:58;;;;;;;20.27;4.60;;;;;;;24.52;45.52;100184.13;5069167;28;20029;-57
2022/06/17 07:15:24;;;;;;;14.25;4.60;;;;;;;24.13;46.77;100182.81;5068450;28;20390;-57
2022/06/17 07:18:01;;;;;;;20.58;5.00;;;;;;;24.73;45.86;100179.72;5067600;28;20025;-56
2022/06/17 07:20:36;;;;;;;29.48;4.80;;;;;;;27.48;40.20;100178.84;5067918;28;20074;-57
2022/06/17 07:23:04;;;;;;;32.05;5.03;;;;;;;30.01;36.03;100186.06;5044700;28;20386;-54
2022/06/17 07:25:29;;;;;;;28.80;5.65;;;;;;;30.08;35.61;100179.94;5068652;28;20032;-57
2022/06/17 07:27:55;;;;;;;41.25;5.43;;;;;;;30.15;35.24;100182.88;5067149;28;20152;-55
2022/06/17 07:30:20;;;;;;;27.90;5.32;;;;;;;28.31;38.88;100188.31;5067534;28;20378;-55
2022/06/17 07:32:46;;;;;;;21.80;4.28;;;;;;;27.94;38.65;100191.69;5039318;28;20502;-56
2022/06/17 07:35:12;;;;;;;27.15;4.90;;;;;;;26.98;40.56;100193.28;5068455;28;20040;-56
2022/06/17 07:40:21;;;;;;;28.15;5.13;;;;;;;26.75;41.61;100190.75;5067673;28;20123;-55
2022/06/17 07:42:47;;;;;;;23.88;4.28;;;;;;;26.54;40.84;100196.16;5067657;28;20021;-57
2022/06/17 07:45:17;;;;;;;19.65;4.30;;;;;;;26.06;41.39;100185.31;5067833;28;20510;-54
2022/06/17 07:47:42;;;;;;;22.02;4.95;;;;;;;26.21;42.23;100182.91;5066992;28;20390;-54
2022/06/17 07:50:10;;;;;;;37.70;5.47;;;;;;;25.19;44.70;100180.47;5067549;28;20021;-55
2022/06/17 07:52:36;;;;;;;30.90;5.30;;;;;;;26.18;43.18;100185.47;5038815;28;20028;-55
2022/06/17 07:55:01;;;;;;;37.22;5.32;;;;;;;28.92;38.42;100191.25;5037083;28;20374;-56
2022/06/17 07:57:27;;;;;;;29.70;4.80;;;;;;;29.22;37.34;100193.84;5050845;28;20032;-55
2022/06/17 07:59:52;;;;;;;24.77;4.47;;;;;;;28.52;38.50;100199.31;5050710;28;20040;-55
2022/06/17 08:02:18;;;;;;;24.83;4.35;;;;;;;30.31;36.12;100210.63;5055700;28;20652;-55
2022/06/17 08:04:43;;;;;;;24.92;4.95;;;;;;;30.14;35.57;100203.41;5066741;28;20090;-56
2022/06/17 08:07:09;;;;;;;35.85;4.57;;;;;;;30.36;34.98;100198.53;5068201;28;20094;-56
2022/06/17 08:09:34;;;;;;;23.15;4.80;;;;;;;29.34;36.56;100201.31;5067494;28;20548;-55
2022/06/17 08:12:00;;;;;;;32.92;4.70;;;;;;;28.56;37.09;100198.31;5067609;28;20024;-56
2022/06/17 08:14:25;;;;;;;17.98;3.88;;;;;;;25.30;42.96;100198.25;5067145;28;20013;-54
2022/06/17 08:16:51;;;;;;;22.63;3.97;;;;;;;27.89;37.65;100194.63;5066572;28;20020;-55
2022/06/17 08:19:16;;;;;;;18.67;4.18;;;;;;;27.47;38.84;100196.50;5043690;28;20078;-55
2022/06/17 08:21:42;;;;;;;23.15;4.00;;;;;;;28.36;37.81;100199.13;5067648;28;20074;-55
2022/06/17 08:24:08;;;;;;;16.02;4.18;;;;;;;29.13;36.45;100201.41;5065604;28;20463;-55
2022/06/17 08:26:34;;;;;;;20.67;3.83;;;;;;;28.17;37.59;100200.41;5065158;28;20028;-55
2022/06/17 08:28:59;;;;;;;22.05;4.03;;;;;;;27.86;37.59;100202.78;5068031;28;20039;-56
2022/06/17 08:31:25;;;;;;;15.32;3.80;;;;;;;27.55;38.76;100201.13;5067212;28;20111;-55
2022/06/17 08:33:50;;;;;;;11.55;3.47;;;;;;;29.28;35.68;100209.03;5067730;28;20024;-55
2022/06/17 08:36:21;;;;;;;9.00;3.38;;;;;;;29.44;34.66;100207.19;5065842;28;20372;-55
2022/06/17 08:38:49;;;;;;;15.05;3.60;;;;;;;28.77;35.88;100205.72;5043401;28;20028;-55
2022/06/17 08:41:27;;;;;;;13.98;2.92;;;;;;;29.74;33.62;100198.66;5066733;28;20066;-57
2022/06/17 08:44:12;;;;;;;10.82;3.00;;;;;;;28.43;35.50;100199.38;5069795;28;20471;-56
2022/06/17 08:46:55;;;;;;;5.90;2.15;;;;;;;28.87;32.87;100197.00;5053682;28;20056;-55
2022/06/17 08:49:58;;;;;;;4.53;2.47;;;;;;;24.95;40.36;100198.06;5071185;28;20028;-57
2022/06/17 08:52:39;;;;;;;4.55;2.50;;;;;;;27.96;34.34;100207.88;5066600;28;20039;-55
2022/06/17 08:55:21;;;;;;;4.35;2.65;;;;;;;26.73;36.54;100201.28;5070143;28;20052;-56
2022/06/17 08:58:11;;;;;;;4.25;2.50;;;;;;;29.27;32.87;100207.41;5068145;28;20036;-56
2022/06/17 09:00:51;;;;;;;6.93;2.85;;;;;;;29.72;32.06;100206.50;5070298;28;20035;-56
2022/06/17 09:03:38;;;;;;;9.70;2.63;;;;;;;28.60;32.50;100207.50;5063253;28;20029;-55
2022/06/17 09:06:48;;;;;;;6.97;2.83;;;;;;;24.07;38.44;100198.56;5051094;28;20099;-55
2022/06/17 09:09:35;;;;;;;11.10;2.97;;;;;;;25.70;37.80;100205.63;5051035;28;20053;-56
2022/06/17 09:12:12;;;;;;;8.63;2.80;;;;;;;24.09;39.69;100198.28;5070172;28;20052;-55
2022/06/17 09:15:00;;;;;;;7.57;3.15;;;;;;;26.22;36.57;100191.97;5051089;28;20363;-56
2022/06/17 09:17:43;;;;;;;7.35;2.85;;;;;;;26.06;36.64;100185.31;5067593;28;20037;-55
2022/06/17 09:20:10;;;;;;;7.20;2.42;;;;;;;25.74;38.18;100184.63;5032362;28;20374;-56
2022/06/17 09:22:41;;;;;;;7.80;2.70;;;;;;;27.66;35.38;100185.88;5036173;28;20029;-55
2022/06/17 09:25:10;;;;;;;4.90;2.40;;;;;;;25.92;36.91;100180.81;5051988;28;20082;-55
2022/06/17 09:27:37;;;;;;;5.30;2.30;;;;;;;26.17;36.24;100186.63;5069451;28;20033;-55
2022/06/17 09:30:12;;;;;;;5.47;2.50;;;;;;;24.67;37.61;100180.19;5070101;28;20285;-55
2022/06/17 09:32:41;;;;;;;6.65;2.40;;;;;;;25.56;37.24;100173.63;5052011;28;20501;-55
2022/06/17 09:35:14;;;;;;;6.13;2.60;;;;;;;27.18;35.66;100164.22;5040222;28;20024;-55
2022/06/17 09:37:57;;;;;;;6.28;2.50;;;;;;;26.63;35.29;100174.97;5036374;28;20020;-56
2022/06/17 09:40:34;;;;;;;5.57;2.60;;;;;;;26.68;35.57;100176.72;5065316;28;20082;-55
2022/06/17 09:43:12;;;;;;;7.35;2.47;;;;;;;27.41;34.33;100168.38;5047460;28;20079;-56
2022/06/17 09:46:05;;;;;;;6.63;2.45;;;;;;;26.12;36.11;100168.38;5065773;28;20033;-55
2022/06/17 09:48:33;;;;;;;4.80;2.55;;;;;;;26.41;36.36;100164.13;5040929;28;20028;-55
2022/06/17 09:51:15;;;;;;;5.22;2.47;;;;;;;25.48;38.32;100162.63;5070247;28;20032;-55
2022/06/17 09:53:58;;;;;;;8.52;2.75;;;;;;;26.60;35.13;100172.06;5050634;28;20023;-55
2022/06/17 09:56:48;;;;;;;5.55;2.53;;;;;;;25.86;37.51;100165.63;5070175;28;20463;-54
2022/06/17 09:59:16;;;;;;;;;;;;;;;26.11;35.73;100165.94;5070506;28;20078;-55
2022/06/17 10:01:42;;;;;;;5.13;2.72;;;;;;;25.23;38.51;100166.91;5069682;28;19969;-55
2022/06/17 10:04:09;;;;;;;5.32;2.30;;;;;;;26.92;37.69;100162.41;5052024;28;20028;-56
2022/06/17 10:06:43;;;;;;;7.30;2.53;;;;;;;26.15;36.44;100156.72;5070208;28;20052;-54
2022/06/17 10:09:39;;;;;;;6.60;2.40;;;;;;;25.39;36.95;100157.94;5036540;28;20045;-57
2022/06/17 10:12:21;;;;;;;6.03;2.45;;;;;;;25.47;37.70;100164.56;5069840;28;20501;-55
2022/06/17 10:15:03;;;;;;;8.68;2.50;;;;;;;24.70;39.65;100169.38;5069783;28;20528;-56
2022/06/17 10:21:09;;;;;;;4.32;2.28;;;;;;;27.52;34.85;100160.53;5054384;28;20078;-55
2022/06/17 10:23:43;;;;;;;4.55;2.15;;;;;;;26.63;33.91;100163.13;5022612;28;20105;-55
2022/06/17 10:26:08;;;;;;;3.55;2.05;;;;;;;26.70;35.03;100157.16;5069190;28;20020;-54
2022/06/17 10:28:39;;;;;;;8.15;2.53;;;;;;;26.28;35.48;100160.41;5069653;28;20031;-54
2022/06/17 10:31:18;;;;;;;7.30;3.00;;;;;;;26.75;35.51;100145.97;5050701;28;20017;-55
2022/06/17 10:33:43;;;;;;;6.05;2.40;;;;;;;27.88;33.42;100148.97;5064456;28;20086;-55
2022/06/17 10:36:09;;;;;;;5.47;2.00;;;;;;;27.88;32.34;100153.63;5069009;28;20013;-54
2022/06/17 10:38:39;;;;;;;4.70;2.25;;;;;;;26.68;33.11;100146.47;5035518;28;20032;-56
2022/06/17 10:41:05;;;;;;;4.28;2.30;;;;;;;25.59;34.86;100148.28;5048413;28;20044;-56
2022/06/17 10:43:40;;;;;;;4.20;2.00;;;;;;;25.67;34.68;100145.88;5051743;28;20025;-55
2022/06/17 10:46:06;;;;;;;3.38;2.00;;;;;;;27.38;33.10;100140.69;5064021;28;20028;-57
2022/06/17 10:48:41;;;;;;;5.68;2.50;;;;;;;28.28;31.24;100136.59;5050897;28;20094;-57
2022/06/17 10:51:07;;;;;;;6.75;2.10;;;;;;;26.94;33.34;100137.34;5069363;28;20308;-55
2022/06/17 10:54:00;;;;;;;5.30;2.10;;;;;;;25.78;34.67;100147.16;5068024;28;20467;-55
2022/06/17 10:56:30;;;;;;;4.35;2.22;;;;;;;26.58;34.37;100131.13;5065777;28;20479;-56
2022/06/17 10:59:00;;;;;;;3.63;1.95;;;;;;;28.43;31.88;100133.22;5049687;28;20074;-55
2022/06/17 11:01:25;;;;;;;6.93;2.10;;;;;;;28.08;32.12;100119.78;5068285;28;20490;-56
2022/06/17 11:03:52;;;;;;;3.20;2.10;;;;;;;29.28;30.17;100120.69;5049406;28;20021;-56
2022/06/17 11:06:19;;;;;;;5.10;2.17;;;;;;;29.51;30.21;100125.72;5024282;28;20021;-55
2022/06/17 11:09:00;;;;;;;6.25;2.00;;;;;;;29.69;30.35;100118.00;5050406;28;20048;-57
2022/06/17 11:14:30;;;;;;;4.90;2.10;;;;;;;28.15;32.08;100117.25;5064489;28;20031;-57
2022/06/17 11:16:56;;;;;;;4.10;1.90;;;;;;;28.92;30.58;100116.75;5067875;28;20024;-57
2022/06/17 11:19:23;;;;;;;3.65;2.17;;;;;;;29.17;30.00;100106.53;5049426;28;20371;-57
2022/06/17 11:21:54;;;;;;;4.63;2.20;;;;;;;29.45;30.20;100101.13;5050174;28;20027;-57
2022/06/17 11:24:32;;;;;;;3.78;2.30;;;;;;;28.36;31.14;100110.91;5066192;28;20016;-57
2022/06/17 11:27:21;;;;;;;4.30;2.20;;;;;;;26.38;33.12;100096.88;5051073;28;20037;-55
2022/06/17 11:29:48;;;;;;;4.70;2.00;;;;;;;27.00;32.28;100109.28;5067276;28;20036;-56
2022/06/17 11:32:19;;;;;;;5.72;2.30;;;;;;;27.25;32.38;100093.00;5040033;28;20029;-56
2022/06/17 11:34:50;;;;;;;7.85;2.20;;;;;;;26.65;33.70;100086.66;5065212;28;20021;-56
2022/06/17 11:37:19;;;;;;;5.63;2.20;;;;;;;28.33;31.71;100086.75;5068205;28;20031;-55
2022/06/17 11:39:45;;;;;;;4.22;2.10;;;;;;;27.48;32.75;100082.47;5050275;28;20084;-57
2022/06/17 11:42:22;;;;;;;5.78;2.10;;;;;;;27.23;33.02;100076.84;5067510;28;20024;-56
2022/06/17 11:44:53;;;;;;;4.68;2.20;;;;;;;27.52;33.41;100073.22;5039534;28;21422;-56
2022/06/17 11:47:19;;;;;;;3.97;2.10;;;;;;;28.43;31.20;100069.81;5040256;28;20029;-57
2022/06/17 11:49:47;;;;;;;5.65;2.10;;;;;;;26.96;32.34;100069.03;5043716;28;20020;-56